Time;durP1;ratioP1;P1;durP2;ratioP2;P2;SDS_P1;SDS_P2;PMS_P1;PMS_P2;Temp;Humidity;BMP_temperature;BMP_pressure;BME280_temperature;BME280_humidity;BME280_pressure;Samples;Min_cycle;Max_cycle;Signal;HPM_P1;HPM_P2
2021/03/31 00:01:04;;;;;;;47.53;28.55;;;;;;;9.76;64.33;101281.88;1665333;83;21181;-81
2021/03/31 00:03:30;;;;;;;44.40;27.32;;;;;;;9.75;64.40;101282.81;1656314;87;21307;-81
2021/03/31 00:05:56;;;;;;;43.42;27.13;;;;;;;9.71;64.64;101281.29;1686483;84;21119;-81
2021/03/31 00:08:21;;;;;;;52.33;28.10;;;;;;;9.70;64.58;101276.09;1695637;84;21226;-81
2021/03/31 00:10:51;;;;;;;44.23;26.85;;;;;;;9.67;64.39;101278.41;1690909;84;21142;-81
2021/03/31 00:13:20;;;;;;;42.65;27.15;;;;;;;9.64;64.47;101281.24;1689139;84;21164;-81
2021/03/31 00:15:46;;;;;;;72.22;37.93;;;;;;;9.59;64.54;101276.67;1684435;84;22200;-81
2021/03/31 00:18:14;;;;;;;90.60;47.03;;;;;;;9.53;65.05;101273.88;1688256;84;21125;-81
2021/03/31 00:20:41;;;;;;;67.37;36.95;;;;;;;9.51;65.57;101275.77;1685163;84;21603;-81
2021/03/31 00:23:13;;;;;;;59.25;33.63;;;;;;;9.50;65.63;101271.41;1671518;84;21133;-81
2021/03/31 00:25:39;;;;;;;57.88;32.28;;;;;;;9.49;65.63;101264.45;1669216;84;21589;-81
2021/03/31 00:28:07;;;;;;;63.85;32.80;;;;;;;9.45;65.42;101265.55;1685101;84;21113;-81
2021/03/31 00:30:33;;;;;;;65.70;36.75;;;;;;;9.42;65.47;101263.08;1680285;84;21111;-81
2021/03/31 00:32:59;;;;;;;61.88;33.30;;;;;;;9.39;65.38;101256.65;1656404;84;21094;-81
2021/03/31 00:35:25;;;;;;;61.77;33.23;;;;;;;9.34;65.34;101262.61;1667792;84;21134;-81
2021/03/31 00:37:52;;;;;;;64.45;32.67;;;;;;;9.31;65.33;101267.59;1695795;84;21172;-81
2021/03/31 00:40:20;;;;;;;58.30;31.30;;;;;;;9.27;65.32;101267.34;1683021;84;21657;-81
2021/03/31 00:42:47;;;;;;;57.33;31.25;;;;;;;9.24;65.40;101258.29;1674588;84;21176;-81
2021/03/31 00:45:15;;;;;;;58.30;32.78;;;;;;;9.21;65.46;101260.23;1692756;84;21537;-81
2021/03/31 00:47:42;;;;;;;63.42;33.60;;;;;;;9.18;65.47;101260.39;1695198;84;21665;-81
2021/03/31 00:50:16;;;;;;;61.35;32.33;;;;;;;9.14;65.47;101251.80;1692909;84;21181;-81
2021/03/31 00:52:44;;;;;;;64.53;32.17;;;;;;;9.11;65.70;101254.16;1692921;84;21223;-81
2021/03/31 00:55:13;;;;;;;53.28;31.00;;;;;;;9.07;65.95;101249.11;1676445;84;21143;-81
2021/03/31 00:57:40;;;;;;;53.30;28.80;;;;;;;9.03;66.22;101248.41;1661498;84;21082;-81
2021/03/31 01:00:09;;;;;;;52.05;30.77;;;;;;;9.00;66.31;101243.78;1671085;84;21080;-81
2021/03/31 01:02:37;;;;;;;47.73;29.75;;;;;;;8.96;66.35;101246.19;1658301;84;21177;-81
2021/03/31 01:05:21;;;;;;;46.05;28.83;;;;;;;8.95;66.66;101244.46;1656308;84;21293;-81
2021/03/31 01:07:48;;;;;;;44.35;25.92;;;;;;;8.93;67.02;101237.51;1659024;84;21578;-81
2021/03/31 01:10:18;;;;;;;47.05;27.62;;;;;;;8.93;66.99;101244.09;1679530;84;21099;-81
2021/03/31 01:13:18;;;;;;;47.27;26.95;;;;;;;8.93;67.11;101244.09;1695669;84;21308;-81
2021/03/31 01:15:52;;;;;;;44.42;26.17;;;;;;;8.91;67.10;101239.82;1660779;84;21603;-81
2021/03/31 01:18:26;;;;;;;49.55;26.15;;;;;;;8.90;67.17;101234.18;1684192;84;21132;-81
2021/03/31 01:21:16;;;;;;;44.05;27.70;;;;;;;8.87;67.00;101239.59;1696199;84;21146;-81
2021/03/31 01:24:00;;;;;;;45.67;25.85;;;;;;;8.83;66.76;101241.54;1672761;84;21135;-81
2021/03/31 01:26:31;;;;;;;44.27;25.85;;;;;;;8.79;67.08;101241.31;1695089;84;21099;-81
2021/03/31 01:29:14;;;;;;;46.60;28.87;;;;;;;8.76;67.04;101240.63;1692625;84;21571;-81
2021/03/31 01:31:48;;;;;;;45.43;26.35;;;;;;;8.73;67.35;101232.88;1676031;84;21139;-80
2021/03/31 01:34:50;;;;;;;42.88;25.43;;;;;;;8.68;67.32;101230.46;1656486;84;21121;-80
2021/03/31 01:37:25;;;;;;;38.10;23.45;;;;;;;8.64;67.36;101228.92;1687531;84;21110;-80
2021/03/31 01:39:54;;;;;;;40.78;25.27;;;;;;;8.59;67.29;101233.11;1682723;84;21100;-80
2021/03/31 01:42:21;;;;;;;47.17;26.55;;;;;;;8.55;67.37;101231.53;1656422;84;21352;-80
2021/03/31 01:44:52;;;;;;;43.95;26.55;;;;;;;8.53;67.35;101239.14;1689964;83;21653;-80
2021/03/31 01:47:19;;;;;;;50.55;28.47;;;;;;;8.51;67.83;101231.77;1670832;84;21155;-80
2021/03/31 01:49:46;;;;;;;45.12;26.52;;;;;;;8.49;68.39;101227.04;1694702;85;21076;-80
2021/03/31 01:52:13;;;;;;;48.30;25.52;;;;;;;8.46;67.93;101222.81;1656671;86;21609;-80
2021/03/31 01:54:44;;;;;;;44.40;25.82;;;;;;;8.44;67.95;101226.81;1655920;84;21121;-80
2021/03/31 01:57:12;;;;;;;48.50;27.73;;;;;;;8.40;67.93;101225.27;1653256;86;21728;-80
2021/03/31 01:59:44;;;;;;;42.25;26.45;;;;;;;8.36;67.71;101223.69;1674419;84;21130;-80
2021/03/31 02:02:12;;;;;;;46.88;26.75;;;;;;;8.34;67.83;101218.95;1683660;84;21148;-81
2021/03/31 02:04:40;;;;;;;49.55;26.50;;;;;;;8.32;67.71;101216.86;1682298;84;21170;-81
2021/03/31 02:07:08;;;;;;;47.53;25.72;;;;;;;8.30;67.71;101213.47;1682390;84;21111;-81
2021/03/31 02:09:41;;;;;;;42.08;25.97;;;;;;;8.27;67.87;101212.77;1686988;84;21173;-81
2021/03/31 02:12:15;;;;;;;44.67;24.75;;;;;;;8.24;67.82;101215.08;1656131;87;21143;-80
2021/03/31 02:14:46;;;;;;;39.98;24.00;;;;;;;8.23;67.86;101212.92;1658790;84;21604;-80
2021/03/31 02:17:19;;;;;;;44.30;26.12;;;;;;;8.22;68.05;101208.56;1671834;84;21111;-82
2021/03/31 02:19:46;;;;;;;;;;;;;;;8.21;67.98;101207.34;1678371;84;21150;-82
2021/03/31 02:22:15;;;;;;;39.70;25.45;;;;;;;8.18;67.89;101212.27;1678835;84;20180;-82
2021/03/31 02:24:45;;;;;;;40.98;25.80;;;;;;;8.14;67.99;101213.36;1665706;85;21135;-82
2021/03/31 02:27:12;;;;;;;42.80;26.52;;;;;;;8.11;68.44;101211.34;1684349;84;21146;-82
2021/03/31 02:29:39;;;;;;;47.20;27.73;;;;;;;8.09;68.32;101214.50;1677189;84;21258;-82
2021/03/31 02:32:08;;;;;;;44.33;29.77;;;;;;;8.05;68.27;101206.37;1706590;83;21162;-82
2021/03/31 02:34:36;;;;;;;52.00;30.12;;;;;;;8.03;68.26;101202.52;1693701;84;21129;-82
2021/03/31 02:37:04;;;;;;;47.05;28.95;;;;;;;8.01;68.33;101200.88;1695631;84;21103;-80
2021/03/31 02:39:32;;;;;;;47.40;27.65;;;;;;;7.98;68.30;101202.72;1695259;84;21115;-80
2021/03/31 02:42:00;;;;;;;49.93;28.23;;;;;;;7.93;68.34;101203.42;1695637;84;21591;-80
2021/03/31 02:44:28;;;;;;;42.78;28.50;;;;;;;7.89;68.79;101204.47;1677383;84;21175;-80
2021/03/31 02:46:57;;;;;;;45.43;28.47;;;;;;;7.84;69.22;101202.54;1684892;84;21498;-80
2021/03/31 02:49:27;;;;;;;47.78;27.65;;;;;;;7.84;68.92;101211.73;1695685;84;21134;-80
2021/03/31 02:51:56;;;;;;;51.55;26.77;;;;;;;7.83;69.08;101206.10;1670600;84;21194;-80
2021/03/31 02:54:23;;;;;;;47.15;29.30;;;;;;;7.83;69.42;101207.41;1639402;84;21520;-80
2021/03/31 02:56:49;;;;;;;55.85;31.50;;;;;;;7.81;69.12;101197.89;1695427;84;21162;-80
2021/03/31 02:59:16;;;;;;;47.20;29.67;;;;;;;7.79;68.91;101195.32;1701451;83;21122;-80
2021/03/31 03:01:43;;;;;;;54.70;32.48;;;;;;;7.79;69.01;101199.26;1690128;83;21141;-80
2021/03/31 03:04:10;;;;;;;57.75;35.52;;;;;;;7.78;69.59;101198.88;1656796;84;21099;-80
2021/03/31 03:06:36;;;;;;;60.25;35.35;;;;;;;7.80;70.39;101202.30;1678197;84;21241;-80
2021/03/31 03:09:06;;;;;;;55.52;32.63;;;;;;;7.81;70.08;101200.05;1677284;84;21165;-80
2021/03/31 03:11:34;;;;;;;54.20;33.13;;;;;;;7.74;69.62;101199.48;1670467;84;21264;-80
2021/03/31 03:14:06;;;;;;;59.60;33.33;;;;;;;7.71;69.91;101198.78;1674620;84;21146;-80
2021/03/31 03:16:32;;;;;;;65.80;34.67;;;;;;;7.65;69.97;101197.28;1668768;84;21103;-80
2021/03/31 03:18:59;;;;;;;51.73;30.68;;;;;;;7.62;70.06;101202.68;1695780;84;21522;-80
2021/03/31 03:21:28;;;;;;;61.40;33.00;;;;;;;7.60;69.68;101199.73;1683814;84;21190;-80
2021/03/31 03:23:58;;;;;;;54.77;32.20;;;;;;;7.59;69.66;101195.41;1653406;86;21137;-80
2021/03/31 03:26:26;;;;;;;61.55;37.38;;;;;;;7.57;69.80;101193.30;1635671;86;21534;-80
2021/03/31 03:28:53;;;;;;;56.58;33.35;;;;;;;7.54;69.92;101185.59;1658985;84;21111;-80
2021/03/31 03:31:20;;;;;;;56.50;32.65;;;;;;;7.52;69.72;101183.87;1643401;86;21175;-80
2021/03/31 03:33:46;;;;;;;59.67;32.95;;;;;;;7.52;69.76;101185.64;1655959;87;21506;-80
2021/03/31 03:36:13;;;;;;;52.17;33.00;;;;;;;7.50;69.76;101179.59;1674805;84;21281;-80
2021/03/31 03:38:40;;;;;;;52.03;31.68;;;;;;;7.47;69.62;101179.77;1667546;86;21292;-80
2021/03/31 03:41:12;;;;;;;56.40;31.52;;;;;;;7.42;69.54;101178.65;1690389;84;21237;-80
2021/03/31 03:43:40;;;;;;;51.23;32.00;;;;;;;7.38;69.62;101174.47;1695086;84;21150;-80
2021/03/31 03:46:10;;;;;;;50.40;31.15;;;;;;;7.34;69.54;101174.23;1683550;84;21614;-80
2021/03/31 03:48:37;;;;;;;59.35;34.40;;;;;;;7.30;69.62;101173.95;1655950;84;21103;-80
2021/03/31 03:51:10;;;;;;;50.43;28.32;;;;;;;7.25;69.53;101178.11;1690078;84;21154;-80
2021/03/31 03:53:37;;;;;;;57.33;31.42;;;;;;;7.22;69.70;101178.25;1695995;84;21131;-80
2021/03/31 03:56:10;;;;;;;51.40;31.55;;;;;;;7.19;69.83;101178.38;1695388;84;21110;-80
2021/03/31 03:58:36;;;;;;;50.55;27.98;;;;;;;7.17;69.87;101168.86;1690900;84;21127;-80
2021/03/31 04:01:03;;;;;;;50.55;30.45;;;;;;;7.14;70.14;101171.63;1681153;84;21146;-80
2021/03/31 04:03:29;;;;;;;49.48;30.00;;;;;;;7.10;70.10;101173.53;1660396;83;21097;-80
2021/03/31 04:05:55;;;;;;;52.15;30.35;;;;;;;7.09;70.20;101173.16;1657258;84;21103;-80
2021/03/31 04:08:21;;;;;;;53.48;30.30;;;;;;;7.05;70.35;101165.88;1667069;84;21660;-80
2021/03/31 04:10:54;;;;;;;50.20;30.70;;;;;;;7.05;70.22;101175.53;1695870;84;21139;-80
2021/03/31 04:13:22;;;;;;;55.90;31.27;;;;;;;7.05;70.17;101173.75;1694254;84;21599;-80
2021/03/31 04:15:53;;;;;;;55.45;30.80;;;;;;;7.04;70.25;101173.80;1695645;84;21542;-80
2021/03/31 04:18:22;;;;;;;49.88;30.43;;;;;;;7.02;70.33;101173.05;1680277;84;21103;-80
2021/03/31 04:20:49;;;;;;;52.05;29.95;;;;;;;7.00;70.24;101179.65;1698823;83;21107;-80
2021/03/31 04:23:17;;;;;;;45.80;27.45;;;;;;;6.97;70.39;101185.50;1687572;84;21138;-80
2021/03/31 04:25:43;;;;;;;45.20;27.98;;;;;;;6.93;70.22;101178.22;1686632;83;21645;-80
2021/03/31 04:28:11;;;;;;;47.10;28.65;;;;;;;6.90;70.36;101183.60;1671892;84;21091;-80
2021/03/31 04:30:40;;;;;;;51.88;28.62;;;;;;;6.88;70.55;101185.46;1695776;84;21147;-80
2021/03/31 04:33:10;;;;;;;56.98;30.20;;;;;;;6.87;71.00;101190.30;1695530;84;21099;-80
2021/03/31 04:35:36;;;;;;;52.90;29.40;;;;;;;6.87;70.89;101184.20;1696218;84;21163;-80
2021/03/31 04:38:12;;;;;;;57.05;29.07;;;;;;;6.86;71.38;101177.25;1695114;84;21558;-80
2021/03/31 04:40:57;;;;;;;56.80;30.10;;;;;;;6.89;70.94;101177.97;1695768;84;21566;-81
2021/03/31 04:43:27;;;;;;;57.98;28.80;;;;;;;6.88;70.87;101177.59;1686927;84;21434;-80
2021/03/31 04:45:59;;;;;;;53.33;31.60;;;;;;;6.87;71.06;101174.55;1692466;83;21196;-81
2021/03/31 04:48:26;;;;;;;53.80;30.10;;;;;;;6.85;70.89;101172.47;1685912;83;21546;-81
2021/03/31 04:50:52;;;;;;;55.73;31.02;;;;;;;6.83;70.76;101174.77;1685381;84;21143;-81
2021/03/31 04:53:18;;;;;;;43.23;29.05;;;;;;;6.79;70.86;101174.89;1677072;84;22281;-81
2021/03/31 04:55:44;;;;;;;50.48;28.83;;;;;;;6.82;71.72;101184.41;1695750;84;21269;-81
2021/03/31 04:58:12;;;;;;;43.73;26.97;;;;;;;6.83;71.53;101178.23;1695737;83;21196;-81
2021/03/31 05:00:38;;;;;;;43.95;26.80;;;;;;;6.81;71.33;101182.69;1695961;83;21619;-81
2021/03/31 05:03:05;;;;;;;47.15;28.75;;;;;;;6.78;72.27;101183.70;1695814;83;21146;-81
2021/03/31 05:05:31;;;;;;;43.48;25.48;;;;;;;6.77;72.72;101180.66;1696268;83;21711;-81
2021/03/31 05:07:57;;;;;;;51.02;26.23;;;;;;;6.77;72.53;101185.91;1694553;83;21095;-81
2021/03/31 05:10:25;;;;;;;60.25;26.48;;;;;;;6.77;72.56;101185.91;1696107;83;21186;-81
2021/03/31 05:12:51;;;;;;;46.70;26.80;;;;;;;6.76;73.08;101181.59;1691159;83;21526;-81
2021/03/31 05:15:18;;;;;;;46.37;26.48;;;;;;;6.77;72.48;101173.25;1696215;84;21115;-81
2021/03/31 05:17:44;;;;;;;57.95;30.50;;;;;;;6.79;72.75;101170.11;1692761;84;21676;-81
2021/03/31 05:20:11;;;;;;;44.58;28.27;;;;;;;6.80;72.90;101174.43;1695601;84;21137;-81
2021/03/31 05:22:37;;;;;;;56.18;28.55;;;;;;;6.84;72.91;101177.31;1695410;84;21135;-81
2021/03/31 05:25:05;;;;;;;48.50;29.60;;;;;;;6.87;72.83;101177.64;1695968;84;21119;-81
2021/03/31 05:27:35;;;;;;;56.08;30.92;;;;;;;6.87;72.90;101179.80;1696223;83;21169;-80
2021/03/31 05:30:04;;;;;;;50.43;28.02;;;;;;;6.87;73.48;101177.17;1691148;84;21146;-81
2021/03/31 05:32:31;;;;;;;42.00;27.37;;;;;;;6.87;73.68;101175.86;1694523;84;21555;-80
2021/03/31 05:34:57;;;;;;;47.88;26.52;;;;;;;6.88;73.79;101180.22;1696101;84;21131;-81
2021/03/31 05:37:23;;;;;;;42.70;25.30;;;;;;;6.90;73.75;101175.73;1695935;83;21533;-81
2021/03/31 05:39:49;;;;;;;47.70;26.02;;;;;;;6.94;74.25;101172.08;1696146;83;21095;-81
2021/03/31 05:42:16;;;;;;;49.23;27.40;;;;;;;7.02;74.46;101163.86;1695678;83;21165;-81
2021/03/31 05:44:44;;;;;;;46.92;27.52;;;;;;;7.10;74.50;101162.19;1693299;83;21119;-81
2021/03/31 05:47:16;;;;;;;49.15;27.55;;;;;;;7.21;74.58;101165.20;1695797;83;21640;-81
2021/03/31 05:49:41;;;;;;;45.63;28.35;;;;;;;7.25;74.35;101170.23;1692565;84;21274;-81
2021/03/31 05:52:10;;;;;;;53.23;29.40;;;;;;;7.30;74.35;101176.58;1720538;83;21123;-81
2021/03/31 05:54:37;;;;;;;50.28;29.80;;;;;;;7.31;74.57;101177.45;1704029;83;21067;-81
2021/03/31 05:57:06;;;;;;;47.95;30.10;;;;;;;7.33;75.05;101177.75;1711089;83;21135;-82
2021/03/31 05:59:32;;;;;;;43.98;27.90;;;;;;;7.37;75.88;101179.77;1699359;83;21131;-81
2021/03/31 06:01:59;;;;;;;42.67;26.52;;;;;;;7.41;76.12;101188.77;1667401;84;21149;-81
2021/03/31 06:04:25;;;;;;;45.63;27.32;;;;;;;7.47;75.74;101187.19;1653598;86;21146;-81
2021/03/31 06:06:57;;;;;;;48.48;29.12;;;;;;;7.54;76.04;101182.97;1687079;83;21146;-82
2021/03/31 06:09:20;;;;;;;44.95;26.48;;;;;;;7.62;75.92;101187.39;1682561;83;21311;-82
2021/03/31 06:11:55;;;;;;;41.83;28.07;;;;;;;7.72;75.88;101184.25;1708960;83;21325;-82
2021/03/31 06:14:38;;;;;;;46.45;29.42;;;;;;;7.79;75.93;101177.39;1704728;83;21704;-82
2021/03/31 06:17:11;;;;;;;47.05;30.05;;;;;;;7.87;75.72;101181.84;1706741;84;21153;-82
2021/03/31 06:19:38;;;;;;;49.10;29.60;;;;;;;7.95;75.62;101179.68;1668364;84;21151;-82
2021/03/31 06:22:31;;;;;;;48.78;30.35;;;;;;;8.02;75.42;101177.61;1683706;83;21192;-82
2021/03/31 06:25:14;;;;;;;47.88;30.27;;;;;;;8.10;75.15;101178.10;1707681;83;21307;-81
2021/03/31 06:27:38;;;;;;;54.55;33.05;;;;;;;8.18;75.26;101178.56;1704112;83;22088;-81
2021/03/31 06:30:05;;;;;;;49.70;30.45;;;;;;;8.24;75.33;101173.02;1692733;83;21136;-81
2021/03/31 06:32:41;;;;;;;46.83;31.95;;;;;;;8.31;75.11;101173.09;1707485;83;21285;-81
2021/03/31 06:35:21;;;;;;;50.73;32.78;;;;;;;8.38;74.82;101169.25;1699598;84;21095;-82
2021/03/31 06:37:48;;;;;;;49.40;31.90;;;;;;;8.51;75.13;101169.49;1695695;84;21103;-81
2021/03/31 06:40:46;;;;;;;49.98;30.62;;;;;;;8.60;74.76;101163.77;1704115;83;21123;-81
2021/03/31 06:43:31;;;;;;;44.63;29.18;;;;;;;8.70;74.59;101165.47;1714810;82;21617;-81
2021/03/31 06:46:02;;;;;;;45.35;29.98;;;;;;;8.84;74.69;101158.17;1677574;83;21227;-82
2021/03/31 06:48:26;;;;;;;47.30;31.10;;;;;;;8.97;74.56;101156.59;1707198;83;21099;-82
2021/03/31 06:50:51;;;;;;;49.67;30.52;;;;;;;9.09;74.33;101160.38;1708466;83;21238;-82
2021/03/31 06:53:27;;;;;;;49.23;31.30;;;;;;;9.18;74.14;101159.89;1701308;83;21112;-82
2021/03/31 06:56:05;;;;;;;62.78;37.70;;;;;;;9.30;73.87;101165.79;1710674;83;21197;-82
2021/03/31 06:58:33;;;;;;;67.82;42.40;;;;;;;9.40;73.75;101156.92;1709543;83;21150;-82
2021/03/31 07:00:59;;;;;;;68.37;40.45;;;;;;;9.52;73.96;101162.00;1675177;83;21624;-82
2021/03/31 07:03:26;;;;;;;58.65;38.92;;;;;;;9.59;74.18;101162.05;1701365;83;21137;-82
2021/03/31 07:05:52;;;;;;;70.83;40.70;;;;;;;9.66;74.17;101160.77;1680362;84;21269;-82
2021/03/31 07:08:18;;;;;;;68.62;36.30;;;;;;;9.73;74.37;101159.48;1692628;83;21171;-82
2021/03/31 07:10:55;;;;;;;57.30;34.88;;;;;;;9.84;74.03;101163.70;1691753;84;21569;-82
2021/03/31 07:13:33;;;;;;;46.33;28.80;;;;;;;9.97;73.64;101161.23;1687486;83;21149;-82
2021/03/31 07:16:04;;;;;;;54.77;31.33;;;;;;;10.10;73.59;101162.66;1685814;83;21182;-82
2021/03/31 07:18:33;;;;;;;46.50;28.90;;;;;;;10.25;73.54;101152.56;1670785;84;21142;-82
2021/03/31 07:21:00;;;;;;;46.85;26.75;;;;;;;10.41;73.16;101150.39;1684214;83;21099;-82
2021/03/31 07:23:28;;;;;;;41.73;26.65;;;;;;;10.56;72.68;101145.06;1695142;84;21284;-82
2021/03/31 07:25:57;;;;;;;44.58;25.82;;;;;;;10.67;72.12;101147.53;1702221;83;21175;-82
2021/03/31 07:28:29;;;;;;;46.80;27.52;;;;;;;10.78;70.85;101151.68;1681366;83;21158;-82
2021/03/31 07:30:57;;;;;;;44.55;26.48;;;;;;;10.91;70.31;101146.03;1680610;85;21141;-82
2021/03/31 07:33:30;;;;;;;46.28;26.65;;;;;;;11.02;70.52;101148.01;1707732;83;21147;-82
2021/03/31 07:35:57;;;;;;;39.33;24.20;;;;;;;11.10;69.82;101145.77;1682369;83;21115;-82
2021/03/31 07:38:26;;;;;;;40.75;24.52;;;;;;;11.18;69.39;101149.23;1680919;85;21153;-82
2021/03/31 07:40:55;;;;;;;43.48;23.73;;;;;;;11.27;69.09;101140.27;1685959;83;21137;-82
2021/03/31 07:43:41;;;;;;;40.63;25.27;;;;;;;11.38;68.26;101138.74;1678610;83;21147;-82
2021/03/31 07:46:15;;;;;;;34.90;22.98;;;;;;;11.48;67.59;101141.17;1683497;83;21155;-82
2021/03/31 07:48:43;;;;;;;41.45;23.35;;;;;;;11.60;68.07;101138.23;1701972;83;21107;-81
2021/03/31 07:51:19;;;;;;;39.98;24.75;;;;;;;11.72;67.73;101138.30;1684195;83;21627;-82
2021/03/31 07:53:48;;;;;;;42.33;26.00;;;;;;;11.81;67.36;101133.35;1710079;83;21131;-82
2021/03/31 07:56:24;;;;;;;44.38;26.77;;;;;;;12.02;67.59;101129.83;1703213;83;21149;-82
2021/03/31 07:59:11;;;;;;;44.40;27.35;;;;;;;12.11;67.54;101127.42;1709515;83;21297;-82
2021/03/31 08:01:45;;;;;;;35.55;23.90;;;;;;;12.06;66.82;101101.73;1699851;83;21111;-82
2021/03/31 08:04:13;;;;;;;41.25;26.10;;;;;;;12.32;66.55;101124.29;1710198;83;21107;-82
2021/03/31 08:06:42;;;;;;;50.38;26.45;;;;;;;12.42;66.56;101122.72;1705184;83;21063;-82
2021/03/31 08:09:11;;;;;;;41.40;25.27;;;;;;;12.51;66.36;101124.75;1710855;83;21160;-82
2021/03/31 08:11:43;;;;;;;42.38;25.10;;;;;;;12.60;65.70;101120.60;1702806;83;21502;-82
2021/03/31 08:14:19;;;;;;;42.65;27.00;;;;;;;12.76;65.42;101121.24;1708692;83;21088;-82
2021/03/31 08:16:50;;;;;;;44.33;25.12;;;;;;;12.90;65.69;101125.13;1671221;84;21208;-82
2021/03/31 08:19:21;;;;;;;39.90;26.40;;;;;;;13.01;65.52;101120.88;1661280;84;21142;-82
2021/03/31 08:21:49;;;;;;;47.48;26.68;;;;;;;13.13;64.47;101115.56;1693545;84;21146;-82
2021/03/31 08:24:17;;;;;;;41.50;23.60;;;;;;;13.24;65.08;101112.63;1695476;83;21177;-82
2021/03/31 08:26:46;;;;;;;43.68;27.40;;;;;;;13.35;64.48;101110.92;1697661;83;21617;-82
2021/03/31 08:29:53;;;;;;;45.65;27.58;;;;;;;13.49;63.92;101111.27;1724356;83;21115;-82
2021/03/31 08:32:08;;;;;;;44.93;25.48;;;;;;;13.63;64.04;101112.92;1655875;85;21186;-81
2021/03/31 08:34:35;;;;;;;40.17;26.00;;;;;;;13.84;63.11;101107.83;1679241;83;21139;-81
2021/03/31 08:37:20;;;;;;;45.58;27.02;;;;;;;14.02;63.03;101097.19;1709890;83;21548;-81
2021/03/31 08:39:46;;;;;;;42.65;26.65;;;;;;;14.17;64.19;101093.00;1639165;87;21130;-82
2021/03/31 08:42:12;;;;;;;46.05;27.52;;;;;;;14.34;63.85;101095.22;1695163;84;21091;-82
2021/03/31 08:44:40;;;;;;;47.23;29.48;;;;;;;14.48;62.99;101084.89;1694367;84;21225;-82
2021/03/31 08:47:16;;;;;;;50.83;27.32;;;;;;;14.67;62.76;101085.16;1702503;83;21257;-82
2021/03/31 08:49:46;;;;;;;46.33;26.93;;;;;;;14.85;62.59;101080.73;1712598;83;21091;-81
2021/03/31 08:52:17;;;;;;;50.67;28.47;;;;;;;15.05;62.26;101080.48;1700203;83;21268;-82
2021/03/31 08:54:52;;;;;;;42.85;26.10;;;;;;;15.21;61.93;101075.14;1694196;83;21123;-82
2021/03/31 08:57:26;;;;;;;41.68;24.43;;;;;;;15.38;61.58;101076.44;1694182;83;21111;-82
2021/03/31 08:59:59;;;;;;;37.55;24.05;;;;;;;15.54;61.70;101076.53;1683426;83;21149;-82
2021/03/31 09:02:34;;;;;;;35.85;21.07;;;;;;;15.74;60.50;101073.60;1723704;83;21606;-82
2021/03/31 09:05:03;;;;;;;38.05;21.95;;;;;;;15.97;59.13;101064.55;1724347;83;21167;-82
2021/03/31 09:07:30;;;;;;;37.00;22.70;;;;;;;16.19;59.46;101066.26;1701195;83;21115;-82
2021/03/31 09:09:56;;;;;;;37.75;21.60;;;;;;;16.37;59.22;101063.84;1723723;83;21076;-82
2021/03/31 09:12:26;;;;;;;33.28;19.55;;;;;;;16.52;57.21;101063.00;1697551;83;21164;-82
2021/03/31 09:14:55;;;;;;;36.33;21.02;;;;;;;16.63;57.51;101062.94;1687755;83;21152;-82
2021/03/31 09:17:27;;;;;;;37.08;22.42;;;;;;;16.77;57.34;101063.94;1685954;83;21174;-82
2021/03/31 09:19:56;;;;;;;36.33;21.50;;;;;;;16.93;57.25;101054.61;1698265;83;21152;-82
2021/03/31 09:22:27;;;;;;;36.53;20.25;;;;;;;17.10;56.52;101057.95;1713443;83;21131;-82
2021/03/31 09:24:57;;;;;;;37.42;23.47;;;;;;;17.24;55.97;101059.39;1711206;83;21161;-82
2021/03/31 09:27:28;;;;;;;31.77;20.30;;;;;;;17.39;55.59;101053.19;1706435;83;21708;-82
2021/03/31 09:29:56;;;;;;;39.15;20.27;;;;;;;17.48;55.25;101049.20;1706552;83;21166;-82
2021/03/31 09:32:28;;;;;;;35.17;21.10;;;;;;;17.62;54.02;101044.44;1703644;83;21173;-82
2021/03/31 09:34:52;;;;;;;35.38;20.27;;;;;;;17.78;54.29;101044.27;1708388;83;21120;-82
2021/03/31 09:37:19;;;;;;;38.15;22.27;;;;;;;17.96;54.78;101039.54;1709254;83;21566;-82
2021/03/31 09:39:57;;;;;;;32.75;20.92;;;;;;;18.16;54.50;101033.67;1709068;83;21108;-82
2021/03/31 09:42:31;;;;;;;43.05;23.22;;;;;;;18.30;54.28;101031.08;1706554;83;21314;-82
2021/03/31 09:44:59;;;;;;;38.55;20.88;;;;;;;18.43;53.07;101033.77;1700078;83;21153;-82
2021/03/31 09:47:31;;;;;;;36.50;21.20;;;;;;;18.60;53.44;101034.84;1700718;83;21095;-82
2021/03/31 09:49:58;;;;;;;35.05;20.32;;;;;;;18.80;53.34;101036.97;1704740;83;21155;-83
2021/03/31 09:52:30;;;;;;;36.15;20.02;;;;;;;19.00;52.71;101033.71;1709014;83;21183;-82
2021/03/31 09:55:07;;;;;;;35.05;21.85;;;;;;;19.15;51.34;101027.34;1705303;83;21175;-82
2021/03/31 09:57:37;;;;;;;23.32;15.23;;;;;;;19.27;52.09;101026.15;1701974;83;21123;-82
2021/03/31 10:00:15;;;;;;;20.80;13.83;;;;;;;19.43;51.82;101027.66;1709760;83;21135;-82
2021/03/31 10:02:44;;;;;;;24.60;16.30;;;;;;;19.53;49.70;101026.75;1707171;83;21535;-82
2021/03/31 10:05:17;;;;;;;29.00;18.75;;;;;;;19.57;50.26;101029.46;1707784;83;21197;-82
2021/03/31 10:07:40;;;;;;;25.95;16.70;;;;;;;19.66;48.26;101021.89;1706059;83;21488;-82
2021/03/31 10:10:09;;;;;;;31.48;18.12;;;;;;;19.72;48.73;101021.78;1710798;83;21135;-82
2021/03/31 10:12:36;;;;;;;25.10;15.58;;;;;;;19.82;48.47;101007.81;1704517;83;21572;-83
2021/03/31 10:15:10;;;;;;;24.98;15.78;;;;;;;19.89;48.32;101011.54;1708909;83;21083;-82
2021/03/31 10:17:36;;;;;;;24.98;15.85;;;;;;;20.04;47.84;101011.34;1705043;83;21304;-82
2021/03/31 10:20:13;;;;;;;30.60;17.85;;;;;;;20.04;47.84;101011.34;1708720;83;21110;-82
2021/03/31 10:22:40;;;;;;;23.95;15.90;;;;;;;20.10;46.76;101003.14;1708313;83;22206;-82
2021/03/31 10:25:09;;;;;;;26.23;16.07;;;;;;;20.07;46.41;100989.59;1707821;83;21116;-82
2021/03/31 10:27:45;;;;;;;24.67;15.32;;;;;;;20.25;47.10;100995.39;1704863;83;21177;-82
2021/03/31 10:30:24;;;;;;;24.35;15.75;;;;;;;20.41;46.68;100996.83;1707417;83;21158;-83
2021/03/31 10:32:52;;;;;;;24.20;15.93;;;;;;;20.56;46.17;100994.41;1683727;83;22384;-83
2021/03/31 10:35:54;;;;;;;25.40;16.40;;;;;;;20.72;45.07;100994.98;1710941;83;21158;-83
2021/03/31 10:39:08;;;;;;;26.70;16.45;;;;;;;20.84;45.32;100983.81;1706765;83;21167;-83
2021/03/31 10:46:55;;;;;;;27.60;16.35;;;;;;;21.17;44.62;100970.48;1666977;86;21187;-83
2021/03/31 10:51:54;;;;;;;25.35;15.80;;;;;;;21.42;44.22;100973.23;1693386;83;21186;-83
2021/03/31 10:54:14;;;;;;;27.22;16.62;;;;;;;21.50;44.06;100963.85;1719095;83;21192;-82
2021/03/31 10:56:47;;;;;;;29.80;17.05;;;;;;;21.65;43.33;100965.35;1713828;83;21294;-83
2021/03/31 10:59:08;;;;;;;25.20;15.20;;;;;;;21.78;42.95;100965.20;1712568;83;21566;-83
2021/03/31 11:01:34;;;;;;;28.23;17.45;;;;;;;21.80;42.79;100964.19;1711465;83;21277;-83
2021/03/31 11:04:00;;;;;;;24.20;15.83;;;;;;;21.85;42.29;100957.30;1711285;83;21289;-83
2021/03/31 11:06:26;;;;;;;25.30;18.05;;;;;;;21.92;42.48;100952.92;1702577;83;21169;-83
2021/03/31 11:08:52;;;;;;;30.02;17.02;;;;;;;22.00;42.79;100950.20;1694606;85;21099;-83
2021/03/31 11:11:19;;;;;;;29.67;17.35;;;;;;;22.10;41.08;100951.37;1694193;85;21192;-83
2021/03/31 11:13:45;;;;;;;25.37;16.48;;;;;;;22.08;40.85;100940.45;1694126;84;21147;-83
2021/03/31 11:16:13;;;;;;;25.17;16.55;;;;;;;22.14;41.71;100935.73;1694632;85;21183;-83
2021/03/31 11:18:57;;;;;;;25.40;17.55;;;;;;;22.20;41.14;100939.11;1693793;84;21602;-82
2021/03/31 11:26:41;;;;;;;24.32;15.50;;;;;;;22.26;40.42;100923.64;1672104;84;21264;-85
2021/03/31 11:29:07;;;;;;;23.38;15.93;;;;;;;22.35;40.47;100933.88;1679497;84;21135;-82
2021/03/31 11:31:33;;;;;;;21.00;14.40;;;;;;;22.39;40.57;100920.41;1724398;83;21567;-82
2021/03/31 11:34:00;;;;;;;21.60;14.25;;;;;;;22.53;39.93;100918.33;1716123;83;21209;-82
2021/03/31 11:36:27;;;;;;;23.62;15.65;;;;;;;22.60;39.30;100918.46;1694450;84;21169;-82
2021/03/31 11:38:53;;;;;;;22.75;15.58;;;;;;;22.64;39.24;100918.47;1694714;85;21165;-82
2021/03/31 11:41:20;;;;;;;23.67;15.43;;;;;;;22.66;38.37;100911.04;1694084;84;21311;-82